createdAt,value
2023-02-12T00:00:58.988Z,64.49
2023-02-12T00:03:26.928Z,65.48
2023-02-12T00:05:55.019Z,64.11
2023-02-12T00:08:22.976Z,64.06
2023-02-12T00:10:50.781Z,63.62
2023-02-12T00:13:18.534Z,63.41
2023-02-12T00:15:47.776Z,63.15
2023-02-12T00:18:15.586Z,62.61
2023-02-12T00:20:43.352Z,63.96
2023-02-12T00:23:12.383Z,66.64
2023-02-12T00:25:42.905Z,64.42
2023-02-12T00:28:10.792Z,65.38
2023-02-12T00:30:38.717Z,66.78
2023-02-12T00:33:08.145Z,66.07
2023-02-12T00:35:35.945Z,67.45
2023-02-12T00:38:03.785Z,68.48
2023-02-12T00:40:31.636Z,68.86
2023-02-12T00:42:59.380Z,68.97
2023-02-12T00:45:27.226Z,68.26
2023-02-12T00:47:55.033Z,67.65
2023-02-12T00:50:24.205Z,66.57
2023-02-12T00:52:52.214Z,68.19
2023-02-12T00:55:20.412Z,67.75
2023-02-12T00:57:48.221Z,67.35
2023-02-12T01:00:17.331Z,67.29
2023-02-12T01:02:45.203Z,67.39
2023-02-12T01:05:13.006Z,67.05
2023-02-12T01:07:42.248Z,67.03
2023-02-12T01:10:10.557Z,66.98
2023-02-12T01:12:38.353Z,66.38
2023-02-12T01:15:06.564Z,64.59
2023-02-12T01:17:34.371Z,63.86
2023-02-12T01:20:02.131Z,65.41
2023-02-12T01:22:30.092Z,66.04
2023-02-12T01:24:59.299Z,66.14
2023-02-12T01:27:27.129Z,65.49
2023-02-12T01:29:56.878Z,66.03
2023-02-12T01:32:25.108Z,65.11
2023-02-12T01:34:53.734Z,66.18
2023-02-12T01:37:22.846Z,65.95
2023-02-12T01:39:50.622Z,66.25
2023-02-12T01:42:19.828Z,65.04
2023-02-12T01:45:34.476Z,64.72
2023-02-12T01:48:02.734Z,63.50
2023-02-12T01:50:30.847Z,63.68
2023-02-12T01:52:59.715Z,65.09
2023-02-12T01:55:27.771Z,64.04
2023-02-12T01:57:57.271Z,64.06
2023-02-12T02:00:26.293Z,63.74
2023-02-12T02:02:58.070Z,64.18
2023-02-12T02:05:32.189Z,63.66
2023-02-12T02:08:00.967Z,63.33
2023-02-12T02:10:30.637Z,63.65
2023-02-12T02:13:17.353Z,62.76
2023-02-12T02:15:50.318Z,63.32
2023-02-12T02:18:26.088Z,63.41
2023-02-12T02:21:19.923Z,63.62
2023-02-12T02:24:04.422Z,63.63
2023-02-12T02:26:53.276Z,65.50
2023-02-12T02:30:10.803Z,66.29
2023-02-12T02:32:44.959Z,65.81
2023-02-12T02:35:17.388Z,64.26
2023-02-12T02:37:50.166Z,65.39
2023-02-12T02:40:20.831Z,65.30
2023-02-12T02:42:55.429Z,65.50
2023-02-12T02:45:29.448Z,64.66
2023-02-12T02:48:01.119Z,64.22
2023-02-12T02:50:31.647Z,63.29
2023-02-12T02:53:03.562Z,63.26
2023-02-12T02:55:36.991Z,62.75
2023-02-12T02:58:12.856Z,62.98
2023-02-12T03:00:47.289Z,63.12
2023-02-12T03:03:23.171Z,62.79
2023-02-12T03:05:56.314Z,62.55
2023-02-12T03:08:27.914Z,63.01
2023-02-12T03:11:00.925Z,62.73
2023-02-12T03:13:33.801Z,63.82
2023-02-12T03:16:08.775Z,63.89
2023-02-12T03:18:42.734Z,63.59
2023-02-12T03:21:14.742Z,63.13
2023-02-12T03:23:49.581Z,63.54
2023-02-12T03:26:21.950Z,64.51
2023-02-12T03:28:50.207Z,63.37
2023-02-12T03:31:29.398Z,63.49
2023-02-12T03:34:07.075Z,63.99
2023-02-12T03:36:41.800Z,64.49
2023-02-12T03:39:14.638Z,64.03
2023-02-12T03:41:46.675Z,63.59
2023-02-12T03:44:21.284Z,63.64
2023-02-12T03:47:00.325Z,63.66
2023-02-12T03:49:33.315Z,63.43
2023-02-12T03:52:01.217Z,62.92
2023-02-12T03:54:29.035Z,62.77
2023-02-12T03:57:00.826Z,64.69
2023-02-12T03:59:29.280Z,65.53
2023-02-12T04:02:00.590Z,66.42
2023-02-12T04:04:29.148Z,65.96
2023-02-12T04:06:57.555Z,63.92
2023-02-12T04:09:27.826Z,64.64
2023-02-12T04:12:07.906Z,65.11
2023-02-12T04:14:45.432Z,64.87
2023-02-12T04:17:23.377Z,64.95
2023-02-12T04:20:03.687Z,63.79
2023-02-12T04:22:46.554Z,62.76
2023-02-12T04:25:24.332Z,63.83
2023-02-12T04:28:00.174Z,63.43
2023-02-12T04:30:33.318Z,63.41
2023-02-12T04:33:05.379Z,63.72
2023-02-12T04:35:36.631Z,63.94
2023-02-12T04:38:10.637Z,64.27
2023-02-12T04:40:41.242Z,63.38
2023-02-12T04:43:09.631Z,62.88
2023-02-12T04:45:38.771Z,63.12
2023-02-12T04:48:08.261Z,62.90
2023-02-12T04:50:40.859Z,61.91
2023-02-12T04:53:09.887Z,62.95
2023-02-12T04:55:37.942Z,64.00
2023-02-12T04:58:05.914Z,63.00
2023-02-12T05:00:33.919Z,61.90
2023-02-12T05:03:01.779Z,61.38
2023-02-12T05:05:30.907Z,61.58
2023-02-12T05:07:58.704Z,60.95
2023-02-12T05:10:26.508Z,61.10
2023-02-12T05:12:54.835Z,62.48
2023-02-12T05:15:23.204Z,61.55
2023-02-12T05:17:50.950Z,61.64
2023-02-12T05:20:18.900Z,60.88
2023-02-12T05:22:51.960Z,61.45
2023-02-12T05:25:19.760Z,60.67
2023-02-12T05:27:47.637Z,60.86
2023-02-12T05:30:15.570Z,61.67
2023-02-12T05:32:43.365Z,61.64
2023-02-12T05:35:11.134Z,60.49
2023-02-12T05:37:39.024Z,60.70
2023-02-12T05:40:09.749Z,59.75
2023-02-12T05:42:37.500Z,59.98
2023-02-12T05:45:06.019Z,60.45
2023-02-12T05:47:33.806Z,60.48
2023-02-12T05:50:01.554Z,61.36
2023-02-12T05:52:29.368Z,60.26
2023-02-12T05:54:57.140Z,60.80
2023-02-12T05:57:26.424Z,60.76
2023-02-12T05:59:54.373Z,60.89
2023-02-12T06:02:22.121Z,61.59
2023-02-12T06:04:49.907Z,61.40
2023-02-12T06:07:17.727Z,61.89
2023-02-12T06:09:45.576Z,62.98
2023-02-12T06:12:13.331Z,63.02
2023-02-12T06:14:43.179Z,63.94
2023-02-12T06:17:10.952Z,62.90
2023-02-12T06:19:38.749Z,63.20
2023-02-12T06:22:07.229Z,62.56
2023-02-12T06:24:35.173Z,61.68
2023-02-12T06:27:03.003Z,62.47
2023-02-12T06:29:30.915Z,62.04
2023-02-12T06:32:00.105Z,61.94
2023-02-12T06:34:28.117Z,61.89
2023-02-12T06:36:56.028Z,61.71
2023-02-12T06:39:23.781Z,62.15
2023-02-12T06:41:51.526Z,63.19
2023-02-12T06:44:19.362Z,63.37
2023-02-12T06:46:47.218Z,62.31
2023-02-12T06:49:16.636Z,62.48
2023-02-12T06:51:44.534Z,62.69
2023-02-12T06:54:14.732Z,62.37
2023-02-12T06:56:42.562Z,62.67
2023-02-12T06:59:14.513Z,62.36
2023-02-12T07:01:42.819Z,64.28
2023-02-12T07:04:11.858Z,63.58
2023-02-12T07:06:41.295Z,61.68
2023-02-12T07:09:09.059Z,61.35
2023-02-12T07:11:39.037Z,61.58
2023-02-12T07:14:07.391Z,61.91
2023-02-12T07:16:35.480Z,62.97
2023-02-12T07:19:03.364Z,64.34
2023-02-12T07:21:31.975Z,62.73
2023-02-12T07:24:01.198Z,60.33
2023-02-12T07:26:29.016Z,59.76
2023-02-12T07:28:58.582Z,58.93
2023-02-12T07:31:26.672Z,58.67
2023-02-12T07:33:55.649Z,60.27
2023-02-12T07:36:24.519Z,59.71
2023-02-12T07:38:52.301Z,59.25
2023-02-12T07:41:23.383Z,60.72
2023-02-12T07:43:55.788Z,60.45
2023-02-12T07:46:29.656Z,60.25
2023-02-12T07:48:58.462Z,59.54
2023-02-12T07:51:26.470Z,59.57
2023-02-12T07:53:54.525Z,60.12
2023-02-12T07:56:25.665Z,60.08
2023-02-12T07:58:54.560Z,59.81
2023-02-12T08:01:24.478Z,60.45
2023-02-12T08:03:52.642Z,58.71
2023-02-12T08:06:23.027Z,59.27
2023-02-12T08:08:52.963Z,59.88
2023-02-12T08:11:20.826Z,60.75
2023-02-12T08:13:49.970Z,58.69
2023-02-12T08:16:19.846Z,58.68
2023-02-12T08:18:48.415Z,57.87
2023-02-12T08:21:18.621Z,57.78
2023-02-12T08:23:49.872Z,57.76
2023-02-12T08:26:20.167Z,57.03
2023-02-12T08:28:51.442Z,56.79
2023-02-12T08:31:21.641Z,56.80
2023-02-12T08:33:51.266Z,57.36
2023-02-12T08:36:20.748Z,57.14
2023-02-12T08:38:48.982Z,56.94
2023-02-12T08:41:20.605Z,56.45
2023-02-12T08:43:53.216Z,56.56
2023-02-12T08:46:22.804Z,57.83
2023-02-12T08:48:54.011Z,57.63
2023-02-12T08:51:23.852Z,56.02
2023-02-12T08:53:55.437Z,55.90
2023-02-12T08:56:24.554Z,55.88
2023-02-12T08:58:54.163Z,54.84
2023-02-12T09:01:23.680Z,55.15
2023-02-12T09:03:52.513Z,54.40
2023-02-12T09:06:22.687Z,54.96
2023-02-12T09:08:52.614Z,54.95
2023-02-12T09:11:24.380Z,54.81
2023-02-12T09:13:54.341Z,54.05
2023-02-12T09:16:22.145Z,54.20
2023-02-12T09:18:50.051Z,54.53
2023-02-12T09:21:19.775Z,55.11
2023-02-12T09:23:48.473Z,53.20
2023-02-12T09:26:20.742Z,54.20
2023-02-12T09:28:49.856Z,54.57
2023-02-12T09:31:23.049Z,54.78
2023-02-12T09:33:54.707Z,53.96
2023-02-12T09:36:23.257Z,53.11
2023-02-12T09:38:51.098Z,52.76
2023-02-12T09:41:36.131Z,53.86
2023-02-12T09:44:08.893Z,54.27
2023-02-12T09:46:46.297Z,53.82
2023-02-12T09:49:19.313Z,53.15
2023-02-12T09:51:53.986Z,52.64
2023-02-12T09:54:24.500Z,52.37
2023-02-12T09:56:55.506Z,52.66
2023-02-12T09:59:32.739Z,50.31
2023-02-12T10:02:02.233Z,50.79
2023-02-12T10:04:30.115Z,51.08
2023-02-12T10:07:07.995Z,50.07
2023-02-12T10:09:48.325Z,51.02
2023-02-12T10:12:27.615Z,48.64
2023-02-12T10:15:12.765Z,50.03
2023-02-12T10:17:48.984Z,51.18
2023-02-12T10:20:47.131Z,50.10
2023-02-12T10:23:29.625Z,49.84
2023-02-12T10:25:59.914Z,48.04
2023-02-12T10:28:40.821Z,47.86
2023-02-12T10:31:16.306Z,47.33
2023-02-12T10:33:48.891Z,47.03
2023-02-12T10:36:35.659Z,48.18
2023-02-12T10:39:08.340Z,46.69
2023-02-12T10:41:40.883Z,46.78
2023-02-12T10:44:10.747Z,45.97
2023-02-12T10:46:38.731Z,48.06
2023-02-12T10:49:12.532Z,47.95
2023-02-12T10:51:59.925Z,49.16
2023-02-12T10:54:40.957Z,49.05
2023-02-12T10:57:15.816Z,48.45
2023-02-12T10:59:45.794Z,47.52
2023-02-12T11:02:21.068Z,48.02
2023-02-12T11:04:50.731Z,48.07
2023-02-12T11:07:19.110Z,48.39
2023-02-12T11:09:48.765Z,48.00
2023-02-12T11:12:32.191Z,47.61
2023-02-12T11:15:02.238Z,46.31
2023-02-12T11:17:36.242Z,46.79
2023-02-12T11:20:25.229Z,46.38
2023-02-12T11:22:56.211Z,47.13
2023-02-12T11:25:26.052Z,48.52
2023-02-12T11:28:13.591Z,48.65
2023-02-12T11:30:51.604Z,48.06
2023-02-12T11:33:26.250Z,47.80
2023-02-12T11:35:57.795Z,48.79
2023-02-12T11:38:28.934Z,48.30
2023-02-12T11:41:00.878Z,47.41
2023-02-12T11:43:31.187Z,47.17
2023-02-12T11:46:01.549Z,48.54
2023-02-12T11:48:34.668Z,49.23
2023-02-12T11:51:06.161Z,49.11
2023-02-12T11:53:36.475Z,48.21
2023-02-12T11:56:07.074Z,48.40
2023-02-12T11:58:35.204Z,48.51
2023-02-12T12:01:08.968Z,48.88
2023-02-12T12:03:45.002Z,49.41
2023-02-12T12:06:35.940Z,48.73
2023-02-12T12:09:11.553Z,47.15
2023-02-12T12:11:47.873Z,47.58
2023-02-12T12:14:25.522Z,47.95
2023-02-12T12:17:14.624Z,47.88
2023-02-12T12:19:56.036Z,47.52
2023-02-12T12:22:47.818Z,47.95
2023-02-12T12:25:24.015Z,48.41
2023-02-12T12:28:03.791Z,48.13
2023-02-12T12:30:42.223Z,47.92
2023-02-12T12:33:18.366Z,49.50
2023-02-12T12:35:57.370Z,50.01
2023-02-12T12:38:41.527Z,50.21
2023-02-12T12:41:20.940Z,49.16
2023-02-12T12:44:04.034Z,48.50
2023-02-12T12:46:49.360Z,48.88
2023-02-12T12:49:41.642Z,48.56
2023-02-12T12:52:21.253Z,48.72
2023-02-12T12:55:08.588Z,49.77
2023-02-12T12:57:47.717Z,49.76
2023-02-12T13:00:25.955Z,49.26
2023-02-12T13:03:21.429Z,50.39
2023-02-12T13:05:59.803Z,50.73
2023-02-12T13:08:40.916Z,50.72
2023-02-12T13:11:20.246Z,50.03
2023-02-12T13:13:51.498Z,50.56
2023-02-12T13:16:24.137Z,49.59
2023-02-12T13:18:59.965Z,49.89
2023-02-12T13:21:39.457Z,48.49
2023-02-12T13:24:22.122Z,49.84
2023-02-12T13:26:55.814Z,50.94
2023-02-12T13:29:28.917Z,50.89
2023-02-12T13:32:00.370Z,50.26
2023-02-12T13:34:30.791Z,50.48
2023-02-12T13:37:01.668Z,49.84
2023-02-12T13:39:34.287Z,50.38
2023-02-12T13:42:16.639Z,49.49
2023-02-12T13:44:52.035Z,49.11
2023-02-12T13:47:30.603Z,49.94
2023-02-12T13:50:04.479Z,49.44
2023-02-12T13:52:40.639Z,49.98
2023-02-12T13:55:26.715Z,50.03
2023-02-12T13:58:27.941Z,51.87
2023-02-12T14:01:00.715Z,50.55
2023-02-12T14:03:30.804Z,50.66
2023-02-12T14:06:17.409Z,51.57
2023-02-12T14:08:48.374Z,50.94
2023-02-12T14:11:19.231Z,51.28
2023-02-12T14:13:53.533Z,51.25
2023-02-12T14:16:40.849Z,50.87
2023-02-12T14:19:57.456Z,51.12
2023-02-12T14:23:01.299Z,51.20
2023-02-12T14:25:45.072Z,50.36
2023-02-12T14:28:24.319Z,50.10
2023-02-12T14:31:35.348Z,51.88
2023-02-12T14:34:39.006Z,50.75
2023-02-12T14:37:17.828Z,49.49
2023-02-12T14:39:46.311Z,50.24
2023-02-12T14:42:55.387Z,50.69
2023-02-12T14:45:32.628Z,50.52
2023-02-12T14:48:03.255Z,50.69
2023-02-12T14:50:39.185Z,51.75
2023-02-12T14:53:27.973Z,52.05
2023-02-12T14:55:57.621Z,53.19
2023-02-12T14:58:27.760Z,54.23
2023-02-12T15:00:57.442Z,53.42
2023-02-12T15:03:34.993Z,53.69
2023-02-12T15:06:09.760Z,55.17
2023-02-12T15:08:44.354Z,54.52
2023-02-12T15:11:29.631Z,53.04
2023-02-12T15:14:02.990Z,53.33
2023-02-12T15:16:46.868Z,53.58
2023-02-12T15:19:29.472Z,55.02
2023-02-12T15:21:57.797Z,54.22
2023-02-12T15:24:27.045Z,54.85
2023-02-12T15:26:57.496Z,55.20
2023-02-12T15:29:28.262Z,54.10
2023-02-12T15:31:57.960Z,54.07
2023-02-12T15:34:31.033Z,54.27
2023-02-12T15:37:02.054Z,54.42
2023-02-12T15:39:44.468Z,53.90
2023-02-12T15:42:26.294Z,54.38
2023-02-12T15:45:03.579Z,55.34
2023-02-12T15:47:31.324Z,54.50
2023-02-12T15:50:01.686Z,53.31
2023-02-12T15:52:35.979Z,52.79
2023-02-12T15:55:05.909Z,54.14
2023-02-12T15:57:34.575Z,53.65
2023-02-12T16:00:07.878Z,52.24
2023-02-12T16:02:40.643Z,52.12
2023-02-12T16:05:16.973Z,52.93
2023-02-12T16:07:46.670Z,52.58
2023-02-12T16:10:16.848Z,53.61
2023-02-12T16:12:45.754Z,55.29
2023-02-12T16:15:26.269Z,54.84
2023-02-12T16:17:54.178Z,55.86
2023-02-12T16:20:27.133Z,55.32
2023-02-12T16:22:55.947Z,55.26
2023-02-12T16:25:26.420Z,54.06
2023-02-12T16:28:06.609Z,55.70
2023-02-12T16:30:38.677Z,56.28
2023-02-12T16:33:26.692Z,56.97
2023-02-12T16:36:03.319Z,55.39
2023-02-12T16:38:42.939Z,56.83
2023-02-12T16:41:24.471Z,55.99
2023-02-12T16:44:12.878Z,55.40
2023-02-12T16:46:48.257Z,56.57
2023-02-12T16:49:18.084Z,57.33
2023-02-12T16:51:48.678Z,56.14
2023-02-12T16:54:29.102Z,56.30
2023-02-12T16:56:57.212Z,56.95
2023-02-12T16:59:25.110Z,57.32
2023-02-12T17:02:01.067Z,54.65
2023-02-12T17:04:29.047Z,53.79
2023-02-12T17:06:58.984Z,54.01
2023-02-12T17:09:26.744Z,54.29
2023-02-12T17:11:54.507Z,54.76
2023-02-12T17:14:22.261Z,55.75
2023-02-12T17:16:50.403Z,54.81
2023-02-12T17:19:18.369Z,54.89
2023-02-12T17:21:49.485Z,54.95
2023-02-12T17:24:22.188Z,55.07
2023-02-12T17:26:51.342Z,54.96
2023-02-12T17:29:19.770Z,55.17
2023-02-12T17:31:48.343Z,54.17
2023-02-12T17:34:16.680Z,54.08
2023-02-12T17:36:44.496Z,54.05
2023-02-12T17:39:14.333Z,54.30
2023-02-12T17:41:44.163Z,55.28
2023-02-12T17:44:13.284Z,54.68
2023-02-12T17:46:41.124Z,54.66
2023-02-12T17:49:09.008Z,54.50
2023-02-12T17:51:36.863Z,54.63
2023-02-12T17:54:05.102Z,53.92
2023-02-12T17:56:33.200Z,53.87
2023-02-12T17:59:02.601Z,54.43
2023-02-12T18:01:30.996Z,53.77
2023-02-12T18:03:59.575Z,54.02
2023-02-12T18:06:29.171Z,54.51
2023-02-12T18:08:58.611Z,54.43
2023-02-12T18:11:27.632Z,54.75
2023-02-12T18:13:57.746Z,54.41
2023-02-12T18:16:30.451Z,54.49
2023-02-12T18:18:59.876Z,53.77
2023-02-12T18:21:28.222Z,53.72
2023-02-12T18:23:55.984Z,54.91
2023-02-12T18:26:24.261Z,54.80
2023-02-12T18:28:53.822Z,54.87
2023-02-12T18:31:22.020Z,54.17
2023-02-12T18:33:51.372Z,53.98
2023-02-12T18:36:21.072Z,54.50
2023-02-12T18:38:51.682Z,55.17
2023-02-12T18:41:21.090Z,54.89
2023-02-12T18:43:49.085Z,55.43
2023-02-12T18:46:19.407Z,55.19
2023-02-12T18:48:48.009Z,53.98
2023-02-12T18:51:19.362Z,53.99
2023-02-12T18:53:47.120Z,54.75
2023-02-12T18:56:15.310Z,55.09
2023-02-12T18:58:43.137Z,54.91
2023-02-12T19:01:16.167Z,54.26
2023-02-12T19:03:44.145Z,54.21
2023-02-12T19:06:12.542Z,54.07
2023-02-12T19:08:41.714Z,53.01
2023-02-12T19:11:11.286Z,52.64
2023-02-12T19:13:39.948Z,53.33
2023-02-12T19:16:08.832Z,53.06
2023-02-12T19:18:36.611Z,53.01
2023-02-12T19:21:07.333Z,53.47
2023-02-12T19:23:35.513Z,55.45
2023-02-12T19:26:05.762Z,55.39
2023-02-12T19:28:34.426Z,55.73
2023-02-12T19:31:10.231Z,55.25
2023-02-12T19:33:39.028Z,54.94
2023-02-12T19:36:07.662Z,55.19
2023-02-12T19:38:35.482Z,55.01
2023-02-12T19:41:05.712Z,55.41
2023-02-12T19:43:33.870Z,55.37
2023-02-12T19:46:02.692Z,55.24
2023-02-12T19:48:30.768Z,54.93
2023-02-12T19:50:58.906Z,54.95
2023-02-12T19:53:27.386Z,55.59
2023-02-12T19:55:55.857Z,55.44
2023-02-12T19:58:24.977Z,55.09
2023-02-12T20:00:52.980Z,55.40
2023-02-12T20:03:23.007Z,55.93
2023-02-12T20:05:53.106Z,56.20
2023-02-12T20:08:21.011Z,56.05
2023-02-12T20:10:48.791Z,55.72
2023-02-12T20:13:18.851Z,56.36
2023-02-12T20:15:48.000Z,58.01
2023-02-12T20:18:15.774Z,58.71
2023-02-12T20:20:43.598Z,57.15
2023-02-12T20:23:11.376Z,56.89
2023-02-12T20:25:43.789Z,56.85
2023-02-12T20:28:12.244Z,57.09
2023-02-12T20:30:41.206Z,57.08
2023-02-12T20:33:11.061Z,57.74
2023-02-12T20:35:38.844Z,57.42
2023-02-12T20:38:07.526Z,55.97
2023-02-12T20:40:35.413Z,56.94
2023-02-12T20:43:03.211Z,58.68
2023-02-12T20:45:31.142Z,58.82
2023-02-12T20:47:58.897Z,59.63
2023-02-12T20:50:28.140Z,56.74
2023-02-12T20:52:56.047Z,57.24
2023-02-12T20:55:23.985Z,57.02
2023-02-12T20:57:51.789Z,56.37
2023-02-12T21:00:20.043Z,57.13
2023-02-12T21:02:48.082Z,57.37
2023-02-12T21:05:16.053Z,57.84
2023-02-12T21:07:46.067Z,57.49
2023-02-12T21:10:13.854Z,57.27
2023-02-12T21:12:41.670Z,57.42
2023-02-12T21:15:10.170Z,57.44
2023-02-12T21:17:37.947Z,57.60
2023-02-12T21:20:07.754Z,57.95
2023-02-12T21:22:35.554Z,58.31
2023-02-12T21:25:05.051Z,57.95
2023-02-12T21:27:32.944Z,58.39
2023-02-12T21:30:00.840Z,57.73
2023-02-12T21:32:28.782Z,58.35
2023-02-12T21:34:56.683Z,58.34
2023-02-12T21:37:24.489Z,57.19
2023-02-12T21:39:52.382Z,57.18
2023-02-12T21:42:21.528Z,57.89
2023-02-12T21:44:49.297Z,58.86
2023-02-12T21:47:17.074Z,58.81
2023-02-12T21:49:44.889Z,58.19
2023-02-12T21:52:12.681Z,58.40
2023-02-12T21:54:40.522Z,59.30
2023-02-12T21:57:08.346Z,58.98
2023-02-12T21:59:37.515Z,61.43
2023-02-12T22:02:05.988Z,62.15
2023-02-12T22:04:33.965Z,62.37
2023-02-12T22:07:03.301Z,62.99
2023-02-12T22:09:32.606Z,62.13
2023-02-12T22:12:00.395Z,60.84
2023-02-12T22:14:28.149Z,60.51
2023-02-12T22:16:57.415Z,59.85
2023-02-12T22:19:25.330Z,59.18
2023-02-12T22:21:53.149Z,59.41
2023-02-12T22:24:21.758Z,59.98
2023-02-12T22:26:49.707Z,60.52
2023-02-12T22:29:18.263Z,59.89
2023-02-12T22:31:47.692Z,59.94
2023-02-12T22:34:19.330Z,62.04
2023-02-12T22:36:48.090Z,62.86
2023-02-12T22:39:17.463Z,63.30
2023-02-12T22:41:45.808Z,63.89
2023-02-12T22:44:14.767Z,64.27
2023-02-12T22:46:43.348Z,63.75
2023-02-12T22:49:11.580Z,62.20
2023-02-12T22:51:41.069Z,61.75
2023-02-12T22:54:12.301Z,61.11
2023-02-12T22:56:40.133Z,63.09
2023-02-12T22:59:08.162Z,63.00
2023-02-12T23:01:35.948Z,62.45
2023-02-12T23:04:03.977Z,62.14
2023-02-12T23:06:33.070Z,63.81
2023-02-12T23:09:04.501Z,62.69
2023-02-12T23:11:33.901Z,61.90
2023-02-12T23:14:01.894Z,62.23
2023-02-12T23:16:30.249Z,61.92
2023-02-12T23:18:59.523Z,61.31
2023-02-12T23:21:28.867Z,61.43
2023-02-12T23:23:58.979Z,61.58
2023-02-12T23:26:28.654Z,60.79
2023-02-12T23:28:56.972Z,62.44
2023-02-12T23:31:25.488Z,62.98
2023-02-12T23:33:53.446Z,63.22
2023-02-12T23:36:21.227Z,63.80
2023-02-12T23:38:48.949Z,64.38
2023-02-12T23:41:16.790Z,63.14
2023-02-12T23:43:45.998Z,62.53
2023-02-12T23:46:13.868Z,61.99
2023-02-12T23:48:41.669Z,62.13
2023-02-12T23:51:10.124Z,62.07
2023-02-12T23:53:37.930Z,62.41
2023-02-12T23:56:06.850Z,61.68
2023-02-12T23:58:34.603Z,61.93
